Time;durP1;ratioP1;P1;durP2;ratioP2;P2;SDS_P1;SDS_P2;PMS_P1;PMS_P2;Temp;Humidity;BMP_temperature;BMP_pressure;BME280_temperature;BME280_humidity;BME280_pressure;Samples;Min_cycle;Max_cycle;Signal;HPM_P1;HPM_P2
2021/01/25 00:00:16;;;;;;;9.70;5.93;;;;;;;-0.12;84.80;97038.66;4910201;28;102965;-83
2021/01/25 00:02:44;;;;;;;9.37;5.50;;;;;;;-0.04;84.72;97026.06;4924188;28;102719;-83
2021/01/25 00:05:12;;;;;;;7.40;5.20;;;;;;;0.01;84.50;97024.06;4911714;28;104325;-83
2021/01/25 00:07:40;;;;;;;6.13;4.83;;;;;;;0.16;84.55;97023.19;4924598;28;103800;-83
2021/01/25 00:10:08;;;;;;;6.00;5.00;;;;;;;-0.13;84.39;97026.59;4917485;28;102657;-83
2021/01/25 00:12:36;;;;;;;6.37;5.53;;;;;;;-0.07;85.70;97026.25;4918049;28;104225;-84
2021/01/25 00:15:04;;;;;;;9.27;6.37;;;;;;;-0.32;86.14;97023.34;4923755;28;103848;-83
2021/01/25 00:17:31;;;;;;;8.03;5.90;;;;;;;-0.35;87.17;97005.34;4919579;28;104926;-83
2021/01/25 00:19:59;;;;;;;9.97;6.30;;;;;;;-0.44;88.38;97000.66;4924352;28;103775;-83
2021/01/25 00:22:27;;;;;;;10.93;6.50;;;;;;;-0.39;89.20;97001.28;4924862;28;102632;-83
2021/01/25 00:24:55;;;;;;;8.33;5.60;;;;;;;-0.47;88.41;96993.03;4917482;28;103980;-83
2021/01/25 00:27:22;;;;;;;10.57;6.03;;;;;;;-0.52;88.80;96992.47;4918086;28;103975;-83
2021/01/25 00:29:49;;;;;;;7.77;4.87;;;;;;;-0.41;88.17;96992.72;4921866;28;102968;-84
2021/01/25 00:32:16;;;;;;;7.83;5.37;;;;;;;-0.14;87.17;96988.59;4924452;28;102807;-84
2021/01/25 00:34:44;;;;;;;6.13;5.10;;;;;;;-0.08;85.33;96983.03;4923236;28;103961;-83
2021/01/25 00:37:12;;;;;;;10.13;4.97;;;;;;;-0.27;85.28;96979.81;4924425;28;104307;-83
2021/01/25 00:39:39;;;;;;;7.07;4.90;;;;;;;-0.08;84.60;96977.84;4924258;28;102916;-84
2021/01/25 00:42:06;;;;;;;4.97;4.00;;;;;;;-0.01;84.13;96979.19;4923964;28;102603;-84
2021/01/25 00:44:33;;;;;;;5.53;4.20;;;;;;;0.04;83.25;96977.16;4909735;28;104994;-84
2021/01/25 00:47:00;;;;;;;5.70;4.33;;;;;;;-0.07;83.94;96975.16;4924422;28;104877;-83
2021/01/25 00:49:27;;;;;;;5.17;3.70;;;;;;;0.00;84.18;96980.84;4918508;28;103050;-83
2021/01/25 00:51:55;;;;;;;9.47;4.30;;;;;;;0.19;83.82;96984.06;4905948;28;102955;-83
2021/01/25 00:54:23;;;;;;;6.47;4.37;;;;;;;0.27;82.98;96983.59;4905513;28;106473;-83
2021/01/25 00:56:51;;;;;;;6.13;4.60;;;;;;;-0.04;83.29;96972.41;4923272;28;103918;-83
2021/01/25 00:59:18;;;;;;;6.30;4.37;;;;;;;-0.39;86.66;96970.13;4902960;28;102974;-83
2021/01/25 01:01:45;;;;;;;5.33;4.57;;;;;;;-0.03;86.27;96970.66;4917331;28;102922;-83
2021/01/25 01:04:13;;;;;;;5.30;4.20;;;;;;;0.18;85.12;96977.19;4923416;28;104333;-84
2021/01/25 01:06:40;;;;;;;5.60;4.93;;;;;;;-0.05;84.91;96975.91;4924074;28;103302;-83
2021/01/25 01:09:07;;;;;;;6.20;4.53;;;;;;;0.12;85.27;96974.94;4919747;28;103620;-83
2021/01/25 01:11:35;;;;;;;6.57;4.33;;;;;;;-0.12;85.68;96976.34;4905040;28;102808;-83
2021/01/25 01:14:03;;;;;;;5.73;4.70;;;;;;;-0.11;86.12;96971.06;4909413;28;105462;-83
2021/01/25 01:16:30;;;;;;;5.33;4.57;;;;;;;-0.21;86.30;96976.88;4924483;28;103743;-83
2021/01/25 01:18:57;;;;;;;6.07;4.87;;;;;;;0.02;85.93;96979.00;4918270;28;103054;-83
2021/01/25 01:21:24;;;;;;;6.63;4.90;;;;;;;-0.27;85.76;96972.03;4921902;28;104216;-84
2021/01/25 01:23:52;;;;;;;6.07;4.30;;;;;;;-0.53;88.30;96972.66;4916923;28;103277;-83
2021/01/25 01:26:19;;;;;;;5.57;4.40;;;;;;;-0.17;86.73;96968.00;4908028;28;106721;-83
2021/01/25 01:28:47;;;;;;;4.73;3.73;;;;;;;0.00;84.90;96973.06;4923949;28;102969;-83
2021/01/25 01:31:18;;;;;;;4.70;3.73;;;;;;;0.10;84.16;96971.59;4924236;28;103095;-83
2021/01/25 01:33:45;;;;;;;6.30;3.67;;;;;;;-0.03;83.83;96968.06;4917211;28;103569;-83
2021/01/25 01:36:12;;;;;;;4.27;3.60;;;;;;;-0.41;84.32;96964.16;4919039;28;107081;-83
2021/01/25 01:38:40;;;;;;;5.73;3.93;;;;;;;-0.41;86.19;96964.16;4913084;28;102565;-83
2021/01/25 01:41:08;;;;;;;4.63;4.07;;;;;;;-0.54;85.94;96950.22;4920894;28;103327;-83
2021/01/25 01:43:35;;;;;;;5.13;3.83;;;;;;;-0.65;85.66;96949.06;4911936;28;103958;-83
2021/01/25 01:46:03;;;;;;;4.73;3.73;;;;;;;-0.75;86.57;96950.47;4923329;28;104560;-84
2021/01/25 01:48:31;;;;;;;3.90;3.27;;;;;;;-0.77;86.37;96949.75;4923470;28;103124;-83
2021/01/25 01:50:58;;;;;;;5.47;3.77;;;;;;;-0.60;85.91;96954.00;4922613;28;102880;-83
2021/01/25 01:53:27;;;;;;;4.33;3.43;;;;;;;-0.50;85.07;96949.13;4913390;28;107125;-83
2021/01/25 01:55:54;;;;;;;4.67;3.47;;;;;;;-0.52;85.68;96956.16;4923293;28;105242;-83
2021/01/25 01:58:23;;;;;;;5.97;3.63;;;;;;;-0.53;84.83;96949.31;4923014;28;102847;-84
2021/01/25 02:00:50;;;;;;;3.90;3.50;;;;;;;-0.42;85.29;96946.94;4916593;28;103820;-83
2021/01/25 02:03:19;;;;;;;4.87;3.67;;;;;;;-0.49;85.50;96941.25;4909728;28;104027;-83
2021/01/25 02:05:46;;;;;;;5.47;3.53;;;;;;;-0.40;84.97;96945.94;4918664;28;104238;-83
2021/01/25 02:08:14;;;;;;;6.27;3.50;;;;;;;-0.30;84.82;96938.44;4911918;28;103215;-83
2021/01/25 02:10:41;;;;;;;7.10;3.97;;;;;;;-0.54;84.77;96937.25;4914543;28;102799;-83
2021/01/25 02:13:09;;;;;;;7.00;3.73;;;;;;;-0.61;85.75;96937.59;4912006;28;103786;-83
2021/01/25 02:15:36;;;;;;;4.53;3.80;;;;;;;-0.57;85.58;96935.66;4921939;28;104275;-83
2021/01/25 02:18:04;;;;;;;6.60;3.37;;;;;;;-0.55;85.38;96938.16;4917442;28;108669;-83
2021/01/25 02:20:35;;;;;;;4.47;3.37;;;;;;;-0.45;84.96;96940.16;4919551;28;104251;-83
2021/01/25 02:23:14;;;;;;;4.07;3.27;;;;;;;-0.42;84.65;96932.19;4917425;28;104087;-83
2021/01/25 02:25:49;;;;;;;6.57;3.80;;;;;;;-0.40;84.72;96929.53;4920283;28;103947;-83
2021/01/25 02:28:18;;;;;;;4.30;3.57;;;;;;;-0.33;84.92;96934.28;4898717;28;104806;-83
2021/01/25 02:30:46;;;;;;;4.77;3.50;;;;;;;-0.21;84.27;96927.56;4916499;28;103536;-83
2021/01/25 02:33:14;;;;;;;4.40;3.50;;;;;;;-0.07;83.94;96937.97;4904873;28;106519;-83
2021/01/25 02:35:44;;;;;;;7.27;3.73;;;;;;;-0.19;83.92;96933.50;4922088;28;103771;-83
2021/01/25 02:38:14;;;;;;;4.33;3.10;;;;;;;-0.07;83.94;96930.19;4906299;28;103228;-84
2021/01/25 02:40:43;;;;;;;3.97;3.27;;;;;;;-0.12;83.40;96920.09;4922652;28;103240;-83
2021/01/25 02:43:11;;;;;;;6.53;3.57;;;;;;;-0.33;84.11;96923.91;4920513;28;108960;-83
2021/01/25 02:45:40;;;;;;;3.40;3.10;;;;;;;-0.26;84.50;96927.00;4922767;28;104125;-83
2021/01/25 02:48:08;;;;;;;4.13;3.23;;;;;;;-0.13;84.45;96920.16;4921101;28;102798;-83
2021/01/25 02:50:36;;;;;;;4.43;3.83;;;;;;;-0.08;83.50;96921.56;4902189;28;103323;-83
2021/01/25 02:53:03;;;;;;;3.93;3.37;;;;;;;-0.08;84.25;96918.97;4918277;28;104500;-84
2021/01/25 02:55:32;;;;;;;4.03;3.33;;;;;;;0.00;84.17;96923.75;4921216;28;103362;-84
2021/01/25 02:58:00;;;;;;;5.33;3.03;;;;;;;-0.30;85.02;96918.53;4900539;28;103098;-83
2021/01/25 03:00:27;;;;;;;5.00;3.37;;;;;;;-0.07;84.52;96917.22;4912786;28;104177;-83
2021/01/25 03:02:55;;;;;;;4.70;3.30;;;;;;;-0.17;84.14;96927.28;4910471;28;103471;-83
2021/01/25 03:05:23;;;;;;;5.53;3.10;;;;;;;0.04;83.70;96925.22;4904784;28;103508;-83
2021/01/25 03:07:51;;;;;;;3.30;2.97;;;;;;;0.07;82.65;96932.00;4909723;28;102666;-83
2021/01/25 03:10:18;;;;;;;4.10;3.37;;;;;;;0.05;82.66;96936.44;4916824;28;103648;-84
2021/01/25 03:12:45;;;;;;;5.23;3.27;;;;;;;0.20;83.21;96938.97;4905048;28;104419;-83
2021/01/25 03:15:14;;;;;;;5.20;3.23;;;;;;;0.28;82.48;96943.72;4913508;28;105082;-83
2021/01/25 03:17:41;;;;;;;3.90;2.30;;;;;;;0.27;82.59;96948.09;4917024;28;103394;-83
2021/01/25 03:20:10;;;;;;;3.27;2.33;;;;;;;0.40;83.20;96954.22;4907334;28;104688;-83
2021/01/25 03:22:37;;;;;;;2.63;2.40;;;;;;;0.49;83.62;96952.84;4919285;28;103670;-83
2021/01/25 03:25:05;;;;;;;3.97;2.70;;;;;;;0.52;83.90;96961.28;4911373;28;104306;-83
2021/01/25 03:27:33;;;;;;;4.47;3.37;;;;;;;0.51;84.73;96966.56;4921750;28;102884;-83
2021/01/25 03:30:00;;;;;;;4.20;3.43;;;;;;;0.33;86.83;96968.50;4904997;28;103382;-84
2021/01/25 03:32:27;;;;;;;4.60;3.13;;;;;;;0.39;88.09;96977.69;4907606;28;104221;-83
2021/01/25 03:34:54;;;;;;;4.10;2.40;;;;;;;0.44;88.49;96971.31;4915876;28;104304;-83
2021/01/25 03:37:22;;;;;;;2.93;2.67;;;;;;;0.49;88.58;96974.47;4903801;28;103086;-83
2021/01/25 03:39:49;;;;;;;4.80;3.13;;;;;;;0.50;88.88;96965.75;4916867;28;103018;-83
2021/01/25 03:42:16;;;;;;;3.67;3.27;;;;;;;0.53;88.97;96965.53;4913098;28;103732;-83
2021/01/25 03:44:43;;;;;;;5.10;3.90;;;;;;;0.58;89.45;96970.50;4922712;28;103928;-83
2021/01/25 03:47:10;;;;;;;5.87;4.50;;;;;;;0.58;89.61;96973.94;4922962;28;102523;-83
2021/01/25 03:49:37;;;;;;;4.07;3.57;;;;;;;0.57;90.22;96971.41;4925160;28;103066;-82
2021/01/25 03:52:04;;;;;;;3.40;3.10;;;;;;;0.59;90.25;96970.38;4919492;28;106848;-83
2021/01/25 03:54:32;;;;;;;4.63;3.60;;;;;;;0.43;91.54;96973.97;4925065;28;103954;-83
2021/01/25 03:57:00;;;;;;;4.97;4.30;;;;;;;0.11;93.93;96973.28;4924403;28;103019;-82
2021/01/25 03:59:27;;;;;;;4.73;3.70;;;;;;;0.11;95.12;96968.09;4917311;28;103003;-83
2021/01/25 04:01:54;;;;;;;6.37;4.33;;;;;;;0.01;95.81;96964.34;4920257;28;103640;-83
2021/01/25 04:04:21;;;;;;;6.50;4.60;;;;;;;-0.02;96.40;96962.75;4925120;28;104181;-83
2021/01/25 04:06:48;;;;;;;4.87;4.37;;;;;;;-0.07;97.54;96969.13;4925051;28;103117;-83
2021/01/25 04:09:15;;;;;;;6.47;4.40;;;;;;;-0.11;97.19;96967.63;4920191;28;103228;-87
2021/01/25 04:11:45;;;;;;;7.17;4.87;;;;;;;-0.29;98.61;96974.72;4920065;28;112196;-87
2021/01/25 04:14:12;;;;;;;5.30;4.80;;;;;;;-0.59;99.71;96977.25;4922493;28;103906;-90
2021/01/25 04:16:39;;;;;;;5.23;4.73;;;;;;;-0.77;100.00;96978.25;4916428;28;102749;-91
2021/01/25 04:19:07;;;;;;;7.47;4.80;;;;;;;-0.80;100.00;96988.78;4917769;28;102999;-88
2021/01/25 04:21:34;;;;;;;8.43;5.30;;;;;;;-0.69;100.00;96976.09;4926521;28;104231;-91
2021/01/25 04:24:02;;;;;;;5.27;4.73;;;;;;;-0.79;100.00;96980.09;4926222;28;103743;-90
2021/01/25 04:26:32;;;;;;;7.53;5.00;;;;;;;-0.78;100.00;96980.91;4918696;28;102977;-92
2021/01/25 04:29:00;;;;;;;6.03;4.17;;;;;;;-0.76;100.00;96985.09;4908514;28;103135;-91
2021/01/25 04:31:27;;;;;;;6.67;4.50;;;;;;;-0.69;100.00;96976.09;4946074;28;104255;-91
2021/01/25 04:33:54;;;;;;;6.17;5.20;;;;;;;-0.74;100.00;96980.69;4941717;28;104291;-92
2021/01/25 04:36:25;;;;;;;6.20;5.17;;;;;;;-0.88;100.00;96978.00;4941382;28;103116;-91
2021/01/25 04:38:52;;;;;;;6.10;4.77;;;;;;;-0.73;100.00;96971.97;4948668;28;103527;-83
2021/01/25 04:41:19;;;;;;;4.97;4.43;;;;;;;-0.66;100.00;96970.72;4939879;28;103957;-80
2021/01/25 04:43:47;;;;;;;6.20;5.33;;;;;;;-0.71;100.00;96969.31;4926399;28;110102;-83
2021/01/25 04:46:15;;;;;;;5.97;5.07;;;;;;;-0.70;100.00;96974.41;4937473;28;103158;-87
2021/01/25 04:48:46;;;;;;;7.27;5.33;;;;;;;-0.83;100.00;96978.59;4944616;28;108574;-89
2021/01/25 04:51:13;;;;;;;6.77;5.10;;;;;;;-0.93;100.00;96977.41;4942952;28;105196;-83
2021/01/25 04:53:40;;;;;;;6.60;5.30;;;;;;;-0.99;100.00;96977.75;4934980;28;105590;-76
2021/01/25 04:56:08;;;;;;;6.97;5.20;;;;;;;-1.04;100.00;96974.56;4940939;28;102659;-80
2021/01/25 04:58:36;;;;;;;6.43;5.53;;;;;;;-0.99;100.00;96977.75;4939242;28;103126;-81
2021/01/25 05:01:03;;;;;;;7.27;5.50;;;;;;;-0.81;100.00;96981.94;4938548;28;104537;-81
2021/01/25 05:03:32;;;;;;;6.70;5.17;;;;;;;-0.86;100.00;96976.16;4941540;28;104236;-81
2021/01/25 05:05:59;;;;;;;6.57;5.83;;;;;;;-0.84;100.00;96987.28;4936121;28;102798;-83
2021/01/25 05:08:26;;;;;;;6.13;4.90;;;;;;;-0.81;100.00;96981.94;4929560;28;103013;-82
2021/01/25 05:10:53;;;;;;;5.60;5.07;;;;;;;-0.87;100.00;96987.44;4931283;28;104395;-82
2021/01/25 05:13:22;;;;;;;6.70;6.00;;;;;;;-0.97;100.00;96980.25;4936595;28;103583;-82
2021/01/25 05:15:51;;;;;;;8.43;5.80;;;;;;;-0.93;100.00;96982.59;4938585;28;103145;-81
2021/01/25 05:18:22;;;;;;;6.90;5.87;;;;;;;-0.93;100.00;96987.78;4941417;28;103120;-82
2021/01/25 05:20:54;;;;;;;8.07;6.30;;;;;;;-0.82;100.00;96990.63;4939698;28;107188;-82
2021/01/25 05:23:21;;;;;;;7.73;5.93;;;;;;;-0.74;100.00;96993.66;4941175;28;104177;-82
2021/01/25 05:25:48;;;;;;;8.13;5.90;;;;;;;-0.78;100.00;96986.94;4943220;28;103108;-82
2021/01/25 05:28:17;;;;;;;6.97;6.10;;;;;;;-0.74;100.00;96992.81;4937377;28;103085;-82
2021/01/25 05:30:44;;;;;;;7.63;5.40;;;;;;;-0.84;100.00;96994.25;4943141;28;103413;-82
2021/01/25 05:33:12;;;;;;;6.47;5.63;;;;;;;-0.83;100.00;96988.97;4938823;28;106248;-82
2021/01/25 05:35:42;;;;;;;7.37;6.07;;;;;;;-0.79;100.00;96995.66;4942951;28;103310;-82
2021/01/25 05:38:10;;;;;;;9.47;6.00;;;;;;;-0.78;100.00;96992.13;4933284;28;103311;-82
2021/01/25 05:40:39;;;;;;;6.83;6.13;;;;;;;-0.65;100.00;96987.97;4942656;28;105439;-82
2021/01/25 05:43:12;;;;;;;9.00;6.77;;;;;;;-0.77;100.00;96993.81;4942549;28;103191;-82
2021/01/25 05:45:39;;;;;;;7.97;5.43;;;;;;;-0.66;100.00;96988.88;4943817;28;102832;-82
2021/01/25 05:48:07;;;;;;;7.33;6.03;;;;;;;-0.63;100.00;96990.47;4935319;28;104414;-82
2021/01/25 05:50:37;;;;;;;8.83;6.20;;;;;;;-0.72;100.00;96999.59;4932263;28;104639;-82
2021/01/25 05:53:05;;;;;;;8.40;5.90;;;;;;;-0.53;100.00;97006.38;4935667;28;104983;-81
2021/01/25 05:55:34;;;;;;;10.10;6.70;;;;;;;-0.50;100.00;97001.00;4942094;28;103031;-82
2021/01/25 05:58:02;;;;;;;7.93;6.23;;;;;;;-0.48;100.00;96999.19;4939489;28;103251;-83
2021/01/25 06:00:30;;;;;;;8.23;6.57;;;;;;;-0.40;100.00;97003.03;4942888;28;104038;-83
2021/01/25 06:02:58;;;;;;;8.83;6.67;;;;;;;-0.40;100.00;97002.19;4938535;28;104903;-89
2021/01/25 06:05:29;;;;;;;6.67;5.87;;;;;;;-0.34;100.00;97002.69;4943057;28;103042;-89
2021/01/25 06:08:03;;;;;;;7.80;6.57;;;;;;;-0.40;100.00;97002.19;4937737;28;103350;-87
2021/01/25 06:10:45;;;;;;;7.63;6.63;;;;;;;-0.35;100.00;97006.19;4928875;28;106874;-85
2021/01/25 06:13:17;;;;;;;6.67;5.80;;;;;;;-0.42;100.00;97009.22;4932258;28;104732;-86
2021/01/25 06:15:47;;;;;;;10.93;6.40;;;;;;;-0.39;100.00;97009.06;4923666;28;103297;-89
2021/01/25 06:18:18;;;;;;;9.30;6.50;;;;;;;-0.46;100.00;97012.88;4921914;28;103105;-92
2021/01/25 06:20:47;;;;;;;7.53;6.63;;;;;;;-0.52;100.00;97013.22;4935871;28;103705;-84
2021/01/25 06:23:16;;;;;;;8.23;6.40;;;;;;;-0.50;100.00;97001.00;4940141;28;104153;-85
2021/01/25 06:25:44;;;;;;;7.47;6.60;;;;;;;-0.54;100.00;97022.84;4932221;28;103145;-84
2021/01/25 06:28:14;;;;;;;8.20;7.33;;;;;;;-0.65;100.00;97023.44;4940623;28;103036;-84
2021/01/25 06:30:43;;;;;;;8.17;7.23;;;;;;;-0.45;100.00;97027.53;4940759;28;104073;-84
2021/01/25 06:33:14;;;;;;;8.10;6.90;;;;;;;-0.46;100.00;97028.47;4934383;28;104253;-82
2021/01/25 06:35:42;;;;;;;8.50;7.53;;;;;;;-0.53;100.00;97025.34;4938325;28;103110;-84
2021/01/25 06:38:14;;;;;;;11.67;8.23;;;;;;;-0.49;100.00;97033.81;4926432;28;103130;-85
2021/01/25 06:40:44;;;;;;;8.03;7.17;;;;;;;-0.43;100.00;97036.06;4935497;28;104331;-85
2021/01/25 06:43:13;;;;;;;8.33;7.07;;;;;;;-0.42;100.00;97037.75;4936950;28;104542;-84
2021/01/25 06:45:43;;;;;;;9.90;8.23;;;;;;;-0.47;100.00;97037.16;4930137;28;103163;-84
2021/01/25 06:48:12;;;;;;;9.07;7.30;;;;;;;-0.42;100.00;97045.53;4930708;28;103130;-84
2021/01/25 06:50:42;;;;;;;11.90;8.70;;;;;;;-0.40;100.00;97044.53;4929115;28;105146;-77
2021/01/25 06:53:09;;;;;;;10.43;8.50;;;;;;;-0.41;100.00;97045.44;4932091;28;105214;-82
2021/01/25 06:55:41;;;;;;;9.47;7.83;;;;;;;-0.39;100.00;97047.97;4932594;28;103163;-80
2021/01/25 06:58:10;;;;;;;10.13;7.73;;;;;;;-0.39;100.00;97051.38;4936871;28;103203;-82
2021/01/25 07:00:39;;;;;;;9.20;8.20;;;;;;;-0.42;100.00;97050.72;4932424;28;105085;-82
2021/01/25 07:03:08;;;;;;;7.80;6.17;;;;;;;-0.34;100.00;97051.16;4940484;28;106393;-82
2021/01/25 07:05:38;;;;;;;7.57;6.77;;;;;;;-0.21;100.00;97059.91;4941244;28;103139;-82
2021/01/25 07:08:22;;;;;;;9.20;6.90;;;;;;;-0.15;100.00;97065.63;4941112;28;102843;-82
2021/01/25 07:10:57;;;;;;;8.43;7.20;;;;;;;-0.29;100.00;97069.88;4920997;28;107336;-77
2021/01/25 07:13:27;;;;;;;8.47;6.77;;;;;;;-0.25;100.00;97076.56;4929214;28;103143;-81
2021/01/25 07:15:55;;;;;;;7.33;6.57;;;;;;;-0.11;100.00;97074.06;4929598;28;103269;-80
2021/01/25 07:18:24;;;;;;;8.93;8.03;;;;;;;-0.02;100.00;97077.00;4935581;28;103148;-79
2021/01/25 07:20:53;;;;;;;9.13;7.57;;;;;;;-0.01;100.00;97077.84;4938821;28;103877;-79
2021/01/25 07:23:22;;;;;;;6.90;5.80;;;;;;;0.14;100.00;97081.34;4933992;28;103154;-80
2021/01/25 07:25:54;;;;;;;8.93;7.33;;;;;;;0.22;100.00;97079.97;4933136;28;103213;-80
2021/01/25 07:28:22;;;;;;;7.40;6.40;;;;;;;0.28;100.00;97090.00;4943668;28;103041;-81
2021/01/25 07:30:51;;;;;;;11.47;9.37;;;;;;;0.23;99.83;97096.38;4932348;28;104692;-80
2021/01/25 07:33:19;;;;;;;10.47;8.90;;;;;;;0.08;99.26;97092.91;4933031;28;105090;-80
2021/01/25 07:35:47;;;;;;;10.70;8.93;;;;;;;0.21;100.00;97095.63;4929526;28;103668;-80
2021/01/25 07:38:15;;;;;;;11.00;8.80;;;;;;;0.27;99.59;97108.28;4943303;28;103227;-80
2021/01/25 07:40:44;;;;;;;13.47;9.73;;;;;;;-0.01;100.00;97109.00;4943493;28;105281;-80
2021/01/25 07:43:14;;;;;;;11.93;9.97;;;;;;;-0.11;100.00;97108.63;4943298;28;104695;-79
2021/01/25 07:45:41;;;;;;;9.90;8.83;;;;;;;-0.11;100.00;97113.00;4905757;28;103210;-81
2021/01/25 07:48:10;;;;;;;11.80;9.43;;;;;;;-0.14;100.00;97111.41;4916210;28;103482;-81
2021/01/25 07:50:39;;;;;;;11.40;9.13;;;;;;;-0.18;100.00;97116.84;4919138;28;105249;-81
2021/01/25 07:53:08;;;;;;;11.50;9.33;;;;;;;-0.50;100.00;97115.97;4927464;28;103970;-81
2021/01/25 07:55:39;;;;;;;10.47;9.33;;;;;;;-0.53;100.00;97118.75;4935424;28;103419;-80
2021/01/25 07:58:07;;;;;;;11.70;9.77;;;;;;;-0.45;100.00;97126.13;4919386;28;103637;-80
2021/01/25 08:00:37;;;;;;;13.77;9.83;;;;;;;-0.34;100.00;97136.78;4935147;28;104733;-77
2021/01/25 08:03:10;;;;;;;10.47;9.13;;;;;;;-0.11;100.00;97124.22;4939187;28;103783;-84
2021/01/25 08:05:40;;;;;;;9.77;8.63;;;;;;;0.01;100.00;97127.91;4924171;28;103033;-84
2021/01/25 08:08:09;;;;;;;11.43;9.60;;;;;;;-0.10;100.00;97127.66;4942969;28;103801;-83
2021/01/25 08:10:37;;;;;;;12.20;9.83;;;;;;;-0.25;100.00;97138.84;4940364;28;103397;-84
2021/01/25 08:13:17;;;;;;;13.07;10.43;;;;;;;-0.18;100.00;97138.47;4943746;28;103804;-84
2021/01/25 08:16:00;;;;;;;13.67;10.40;;;;;;;-0.19;100.00;97141.13;4940582;28;103110;-84
2021/01/25 08:18:35;;;;;;;12.40;9.80;;;;;;;-0.34;100.00;97147.16;4945409;28;102989;-85
2021/01/25 08:21:05;;;;;;;12.40;9.57;;;;;;;-0.31;100.00;97145.22;4933999;28;105806;-84
2021/01/25 08:23:38;;;;;;;12.10;9.83;;;;;;;-0.19;100.00;97147.16;4921406;28;107033;-84
2021/01/25 08:26:09;;;;;;;12.17;9.07;;;;;;;0.07;100.00;97153.53;4934666;28;103462;-84
2021/01/25 08:28:41;;;;;;;10.10;9.03;;;;;;;0.09;100.00;97148.25;4936097;28;103144;-84
2021/01/25 08:31:13;;;;;;;12.57;10.10;;;;;;;0.24;100.00;97160.41;4944312;28;103795;-84
2021/01/25 08:33:44;;;;;;;11.57;9.17;;;;;;;0.21;100.00;97171.81;4943539;28;104269;-84
2021/01/25 08:36:27;;;;;;;12.40;10.20;;;;;;;0.31;100.00;97172.94;4936841;28;103025;-85
2021/01/25 08:38:55;;;;;;;13.60;10.57;;;;;;;0.49;100.00;97171.94;4944513;28;102866;-84
2021/01/25 08:41:28;;;;;;;14.17;10.43;;;;;;;0.46;100.00;97172.13;4943071;28;104138;-84
2021/01/25 08:43:59;;;;;;;13.60;9.50;;;;;;;0.65;100.00;97173.69;4944074;28;104182;-84
2021/01/25 08:46:32;;;;;;;13.17;10.67;;;;;;;0.57;100.00;97169.75;4944159;28;102945;-84
2021/01/25 08:49:16;;;;;;;14.67;10.23;;;;;;;0.83;100.00;97183.03;4929821;28;103061;-84
2021/01/25 08:51:55;;;;;;;15.23;11.53;;;;;;;0.72;100.00;97183.66;4928410;28;106034;-84
2021/01/25 08:54:30;;;;;;;13.67;10.67;;;;;;;0.82;100.00;97186.53;4943274;28;103710;-84
2021/01/25 08:56:58;;;;;;;19.10;14.43;;;;;;;0.94;100.00;97191.88;4944531;28;102978;-84
2021/01/25 08:59:32;;;;;;;14.60;12.47;;;;;;;0.77;100.00;97188.56;4943946;28;102928;-84
2021/01/25 09:02:11;;;;;;;13.13;11.50;;;;;;;0.69;100.00;97194.22;4942088;28;103776;-83
2021/01/25 09:04:38;;;;;;;15.87;11.53;;;;;;;0.51;100.00;97198.66;4935751;28;103166;-82
2021/01/25 09:07:11;;;;;;;15.87;11.30;;;;;;;0.52;100.00;97208.16;4942666;28;102766;-83
2021/01/25 09:09:40;;;;;;;16.83;11.43;;;;;;;0.56;100.00;97209.63;4935751;28;103780;-82
2021/01/25 09:12:08;;;;;;;14.97;12.10;;;;;;;0.86;100.00;97208.84;4936976;28;105149;-85
2021/01/25 09:14:35;;;;;;;16.20;11.50;;;;;;;0.88;100.00;97209.59;4934903;28;106531;-83
2021/01/25 09:17:03;;;;;;;14.23;11.37;;;;;;;0.98;100.00;97210.75;4936640;28;103252;-84
2021/01/25 09:19:31;;;;;;;17.47;12.43;;;;;;;0.95;100.00;97216.13;4938801;28;103668;-84
2021/01/25 09:21:59;;;;;;;18.17;13.43;;;;;;;0.92;100.00;97222.34;4941453;28;104162;-84
2021/01/25 09:24:26;;;;;;;12.60;9.87;;;;;;;1.22;100.00;97227.53;4942394;28;104121;-84
2021/01/25 09:26:54;;;;;;;10.43;8.13;;;;;;;1.46;100.00;97226.09;4923044;28;103261;-84
2021/01/25 09:29:21;;;;;;;15.37;10.80;;;;;;;1.60;100.00;97230.50;4939743;28;102981;-83
2021/01/25 09:31:48;;;;;;;8.70;7.73;;;;;;;1.66;99.79;97241.38;4937569;28;103360;-84
2021/01/25 09:34:16;;;;;;;11.03;8.40;;;;;;;1.83;99.62;97244.72;4938160;28;103755;-82
2021/01/25 09:36:46;;;;;;;11.60;9.17;;;;;;;1.82;98.71;97246.50;4942912;28;103034;-82
2021/01/25 09:39:16;;;;;;;16.37;10.83;;;;;;;1.83;97.33;97248.16;4937052;28;102874;-83
2021/01/25 09:41:46;;;;;;;14.87;12.20;;;;;;;1.74;97.15;97257.38;4930265;28;104244;-82
2021/01/25 09:44:15;;;;;;;20.67;14.90;;;;;;;1.61;98.51;97251.22;4937071;28;105022;-83
2021/01/25 09:46:42;;;;;;;17.73;13.80;;;;;;;1.15;99.71;97262.66;4943050;28;103088;-83
2021/01/25 09:49:11;;;;;;;13.80;11.23;;;;;;;1.39;100.00;97262.97;4943742;28;103104;-82
2021/01/25 09:51:41;;;;;;;17.90;13.73;;;;;;;1.47;100.00;97266.81;4944023;28;105959;-83
2021/01/25 09:54:10;;;;;;;15.40;11.40;;;;;;;1.54;100.00;97278.56;4940965;28;103625;-82
2021/01/25 09:56:37;;;;;;;15.33;12.00;;;;;;;1.65;99.52;97270.09;4942018;28;102965;-83
2021/01/25 09:59:05;;;;;;;13.63;10.80;;;;;;;2.01;100.00;97274.88;4922914;28;103343;-83
2021/01/25 10:01:32;;;;;;;22.10;17.07;;;;;;;2.40;99.46;97275.03;4932327;28;103767;-83
2021/01/25 10:04:00;;;;;;;15.63;13.27;;;;;;;2.72;95.95;97284.28;4931711;28;103582;-84
2021/01/25 10:06:28;;;;;;;14.73;12.67;;;;;;;2.79;94.69;97292.56;4940627;28;102811;-81
2021/01/25 10:08:56;;;;;;;12.10;10.67;;;;;;;3.10;94.20;97286.22;4892386;28;105104;-81
2021/01/25 10:11:58;;;;;;;12.97;11.17;;;;;;;2.99;91.33;97294.75;5002412;27;102917;-83
2021/01/25 10:14:26;;;;;;;10.03;9.03;;;;;;;3.21;92.23;97289.81;5036865;27;103035;-83
2021/01/25 10:16:53;;;;;;;8.97;7.83;;;;;;;3.42;91.81;97298.84;5022806;27;103884;-83
2021/01/25 10:19:21;;;;;;;10.53;8.63;;;;;;;3.28;91.20;97301.56;5023752;28;104376;-83
2021/01/25 10:21:48;;;;;;;9.23;8.33;;;;;;;3.50;90.95;97311.41;5034576;27;103195;-83
2021/01/25 10:24:17;;;;;;;8.70;7.80;;;;;;;3.65;90.17;97305.16;5021937;27;103031;-85
2021/01/25 10:26:44;;;;;;;10.17;7.30;;;;;;;3.67;89.66;97311.16;5026672;27;103907;-84
2021/01/25 10:29:12;;;;;;;7.87;6.27;;;;;;;3.73;89.51;97309.91;5020355;27;104305;-84
2021/01/25 10:31:40;;;;;;;6.87;5.90;;;;;;;3.58;89.28;97311.75;5021492;27;104142;-84
2021/01/25 10:34:08;;;;;;;8.73;7.77;;;;;;;3.47;89.74;97314.22;5021841;27;103230;-85
2021/01/25 10:36:35;;;;;;;8.07;7.07;;;;;;;3.63;89.99;97322.72;5021435;28;103970;-84
2021/01/25 10:39:03;;;;;;;9.00;7.63;;;;;;;3.81;88.77;97320.66;5012543;28;103824;-85
2021/01/25 10:41:30;;;;;;;11.03;8.27;;;;;;;3.94;88.46;97324.97;5021196;27;103158;-85
2021/01/25 10:44:01;;;;;;;11.73;8.97;;;;;;;4.06;87.54;97332.00;5018844;27;102858;-85
2021/01/25 10:46:29;;;;;;;9.77;7.93;;;;;;;4.06;87.10;97332.00;5020533;27;104042;-84
2021/01/25 10:48:57;;;;;;;10.40;7.83;;;;;;;4.13;87.93;97334.19;5020985;27;104665;-85
2021/01/25 10:51:24;;;;;;;10.50;8.53;;;;;;;4.17;86.21;97343.47;5020699;27;102672;-86
2021/01/25 10:53:55;;;;;;;9.40;6.97;;;;;;;4.17;86.76;97338.25;5024113;28;103060;-85
2021/01/25 10:56:22;;;;;;;7.30;6.10;;;;;;;4.45;86.91;97343.28;5015088;28;104411;-85
2021/01/25 10:58:50;;;;;;;8.37;5.93;;;;;;;4.30;86.70;97344.31;5021413;28;103715;-85
2021/01/25 11:01:17;;;;;;;8.40;5.37;;;;;;;4.07;88.05;97343.25;5019693;28;103160;-85
2021/01/25 11:03:47;;;;;;;5.33;4.77;;;;;;;3.63;87.98;97343.63;5021487;28;104287;-85
2021/01/25 11:06:16;;;;;;;5.10;4.30;;;;;;;4.13;88.44;97344.66;5037194;27;104901;-86
2021/01/25 11:08:44;;;;;;;5.67;4.67;;;;;;;4.01;86.52;97348.91;5019008;27;104456;-86
2021/01/25 11:11:11;;;;;;;4.83;4.17;;;;;;;4.26;87.30;97345.47;5040242;27;103375;-79
2021/01/25 11:13:38;;;;;;;3.53;3.23;;;;;;;4.06;87.36;97346.84;5044191;27;103015;-87
2021/01/25 11:16:06;;;;;;;5.10;3.67;;;;;;;3.71;87.97;97350.94;5056545;27;104327;-86
2021/01/25 11:18:33;;;;;;;5.40;2.97;;;;;;;4.07;87.65;97354.56;5044313;27;103207;-89
2021/01/25 11:21:02;;;;;;;5.00;3.40;;;;;;;3.90;86.46;97352.22;5040884;27;103286;-84
2021/01/25 11:23:30;;;;;;;4.70;3.10;;;;;;;3.95;88.08;97354.56;5025570;27;103098;-86
2021/01/25 11:25:57;;;;;;;2.93;2.27;;;;;;;3.67;88.13;97354.72;5029552;28;103952;-84
2021/01/25 11:28:25;;;;;;;6.23;3.40;;;;;;;3.78;88.29;97367.91;5029570;28;103919;-81